sensor_id;sensor_type;location;lat;lon;timestamp;P1;durP1;ratioP1;P2;durP2;ratioP2
22144;SDS011;11238;48.730;11.566;2024-02-14T00:01:06;11.75;;;5.57;;
22144;SDS011;11238;48.730;11.566;2024-02-14T00:03:35;9.45;;;5.28;;
22144;SDS011;11238;48.730;11.566;2024-02-14T00:06:03;9.80;;;4.85;;
22144;SDS011;11238;48.730;11.566;2024-02-14T00:08:31;10.63;;;5.47;;
22144;SDS011;11238;48.730;11.566;2024-02-14T00:10:57;11.68;;;5.93;;
22144;SDS011;11238;48.730;11.566;2024-02-14T00:13:23;8.43;;;5.45;;
22144;SDS011;11238;48.730;11.566;2024-02-14T00:15:49;8.82;;;4.88;;
22144;SDS011;11238;48.730;11.566;2024-02-14T00:18:16;9.63;;;5.57;;
22144;SDS011;11238;48.730;11.566;2024-02-14T00:20:42;8.40;;;5.65;;
22144;SDS011;11238;48.730;11.566;2024-02-14T00:23:08;8.13;;;5.15;;
22144;SDS011;11238;48.730;11.566;2024-02-14T00:25:34;9.18;;;5.53;;
22144;SDS011;11238;48.730;11.566;2024-02-14T00:28:00;9.43;;;5.13;;
22144;SDS011;11238;48.730;11.566;2024-02-14T00:30:26;8.15;;;4.93;;
22144;SDS011;11238;48.730;11.566;2024-02-14T00:32:52;9.93;;;5.25;;
22144;SDS011;11238;48.730;11.566;2024-02-14T00:35:18;8.60;;;4.95;;
22144;SDS011;11238;48.730;11.566;2024-02-14T00:37:43;9.30;;;5.60;;
22144;SDS011;11238;48.730;11.566;2024-02-14T00:40:10;6.93;;;5.07;;
22144;SDS011;11238;48.730;11.566;2024-02-14T00:42:36;9.88;;;5.70;;
22144;SDS011;11238;48.730;11.566;2024-02-14T00:45:02;8.00;;;4.97;;
22144;SDS011;11238;48.730;11.566;2024-02-14T00:47:34;8.23;;;5.38;;
22144;SDS011;11238;48.730;11.566;2024-02-14T00:50:19;9.77;;;5.45;;
22144;SDS011;11238;48.730;11.566;2024-02-14T00:52:44;9.85;;;5.35;;
22144;SDS011;11238;48.730;11.566;2024-02-14T00:55:10;9.70;;;5.72;;
22144;SDS011;11238;48.730;11.566;2024-02-14T00:57:36;9.85;;;5.15;;
22144;SDS011;11238;48.730;11.566;2024-02-14T01:00:02;11.77;;;5.38;;
22144;SDS011;11238;48.730;11.566;2024-02-14T01:02:30;7.32;;;5.03;;
22144;SDS011;11238;48.730;11.566;2024-02-14T01:04:56;7.43;;;5.20;;
22144;SDS011;11238;48.730;11.566;2024-02-14T01:07:22;9.52;;;5.43;;
22144;SDS011;11238;48.730;11.566;2024-02-14T01:09:48;11.43;;;5.72;;
22144;SDS011;11238;48.730;11.566;2024-02-14T01:12:15;6.65;;;4.95;;
22144;SDS011;11238;48.730;11.566;2024-02-14T01:14:42;9.20;;;5.22;;
22144;SDS011;11238;48.730;11.566;2024-02-14T01:17:08;8.05;;;5.25;;
22144;SDS011;11238;48.730;11.566;2024-02-14T01:19:34;10.95;;;5.78;;
22144;SDS011;11238;48.730;11.566;2024-02-14T01:22:00;11.65;;;5.25;;
22144;SDS011;11238;48.730;11.566;2024-02-14T01:24:26;9.05;;;5.75;;
22144;SDS011;11238;48.730;11.566;2024-02-14T01:26:53;9.95;;;5.13;;
22144;SDS011;11238;48.730;11.566;2024-02-14T01:29:20;12.43;;;5.30;;
22144;SDS011;11238;48.730;11.566;2024-02-14T01:31:47;11.20;;;6.38;;
22144;SDS011;11238;48.730;11.566;2024-02-14T01:34:14;9.35;;;5.70;;
22144;SDS011;11238;48.730;11.566;2024-02-14T01:36:40;8.70;;;5.32;;
22144;SDS011;11238;48.730;11.566;2024-02-14T01:39:06;9.77;;;5.50;;
22144;SDS011;11238;48.730;11.566;2024-02-14T01:41:36;10.05;;;5.30;;
22144;SDS011;11238;48.730;11.566;2024-02-14T01:44:03;12.70;;;5.15;;
22144;SDS011;11238;48.730;11.566;2024-02-14T01:46:29;8.63;;;5.50;;
22144;SDS011;11238;48.730;11.566;2024-02-14T01:48:55;9.57;;;5.30;;
22144;SDS011;11238;48.730;11.566;2024-02-14T01:51:22;11.05;;;5.65;;
22144;SDS011;11238;48.730;11.566;2024-02-14T01:53:52;8.75;;;5.22;;
22144;SDS011;11238;48.730;11.566;2024-02-14T01:56:20;12.45;;;5.57;;
22144;SDS011;11238;48.730;11.566;2024-02-14T01:58:47;9.40;;;5.50;;
22144;SDS011;11238;48.730;11.566;2024-02-14T02:01:13;7.60;;;5.10;;
22144;SDS011;11238;48.730;11.566;2024-02-14T02:03:41;9.43;;;5.50;;
22144;SDS011;11238;48.730;11.566;2024-02-14T02:06:07;10.50;;;5.10;;
22144;SDS011;11238;48.730;11.566;2024-02-14T02:08:33;9.23;;;5.30;;
22144;SDS011;11238;48.730;11.566;2024-02-14T02:10:58;8.55;;;5.35;;
22144;SDS011;11238;48.730;11.566;2024-02-14T02:13:24;9.02;;;5.43;;
22144;SDS011;11238;48.730;11.566;2024-02-14T02:15:51;7.65;;;4.75;;
22144;SDS011;11238;48.730;11.566;2024-02-14T02:18:18;6.88;;;5.30;;
22144;SDS011;11238;48.730;11.566;2024-02-14T02:20:45;11.48;;;5.90;;
22144;SDS011;11238;48.730;11.566;2024-02-14T02:23:11;7.40;;;4.93;;
22144;SDS011;11238;48.730;11.566;2024-02-14T02:25:41;8.00;;;4.85;;
22144;SDS011;11238;48.730;11.566;2024-02-14T02:28:07;10.35;;;5.13;;
22144;SDS011;11238;48.730;11.566;2024-02-14T02:30:34;10.30;;;5.00;;
22144;SDS011;11238;48.730;11.566;2024-02-14T02:33:01;8.50;;;5.18;;
22144;SDS011;11238;48.730;11.566;2024-02-14T02:35:27;10.00;;;5.18;;
22144;SDS011;11238;48.730;11.566;2024-02-14T02:37:53;7.05;;;4.50;;
22144;SDS011;11238;48.730;11.566;2024-02-14T02:40:19;7.78;;;4.80;;
22144;SDS011;11238;48.730;11.566;2024-02-14T02:42:47;6.10;;;4.57;;
22144;SDS011;11238;48.730;11.566;2024-02-14T02:45:13;7.40;;;4.57;;
22144;SDS011;11238;48.730;11.566;2024-02-14T02:47:39;11.90;;;4.93;;
22144;SDS011;11238;48.730;11.566;2024-02-14T02:50:05;9.55;;;4.82;;
22144;SDS011;11238;48.730;11.566;2024-02-14T02:52:33;10.52;;;5.05;;
22144;SDS011;11238;48.730;11.566;2024-02-14T02:54:59;6.93;;;4.22;;
22144;SDS011;11238;48.730;11.566;2024-02-14T02:57:48;7.05;;;4.25;;
22144;SDS011;11238;48.730;11.566;2024-02-14T03:00:14;8.02;;;5.00;;
22144;SDS011;11238;48.730;11.566;2024-02-14T03:02:41;8.55;;;4.80;;
22144;SDS011;11238;48.730;11.566;2024-02-14T03:05:10;6.63;;;4.57;;
22144;SDS011;11238;48.730;11.566;2024-02-14T03:07:43;8.57;;;5.30;;
22144;SDS011;11238;48.730;11.566;2024-02-14T03:10:10;9.57;;;4.72;;
22144;SDS011;11238;48.730;11.566;2024-02-14T03:12:39;6.80;;;4.25;;
22144;SDS011;11238;48.730;11.566;2024-02-14T03:15:05;8.60;;;4.40;;
22144;SDS011;11238;48.730;11.566;2024-02-14T03:17:35;8.80;;;4.75;;
22144;SDS011;11238;48.730;11.566;2024-02-14T03:20:01;6.82;;;4.63;;
22144;SDS011;11238;48.730;11.566;2024-02-14T03:22:28;6.25;;;4.60;;
22144;SDS011;11238;48.730;11.566;2024-02-14T03:24:54;7.22;;;4.65;;
22144;SDS011;11238;48.730;11.566;2024-02-14T03:27:20;7.95;;;4.82;;
22144;SDS011;11238;48.730;11.566;2024-02-14T03:29:48;7.65;;;4.75;;
22144;SDS011;11238;48.730;11.566;2024-02-14T03:32:16;7.75;;;4.75;;
22144;SDS011;11238;48.730;11.566;2024-02-14T03:34:42;8.82;;;4.80;;
22144;SDS011;11238;48.730;11.566;2024-02-14T03:37:08;7.65;;;4.47;;
22144;SDS011;11238;48.730;11.566;2024-02-14T03:39:35;9.63;;;4.78;;
22144;SDS011;11238;48.730;11.566;2024-02-14T03:42:02;8.55;;;4.72;;
22144;SDS011;11238;48.730;11.566;2024-02-14T03:44:33;8.48;;;4.57;;
22144;SDS011;11238;48.730;11.566;2024-02-14T03:46:59;9.13;;;4.82;;
22144;SDS011;11238;48.730;11.566;2024-02-14T03:49:25;9.68;;;4.95;;
22144;SDS011;11238;48.730;11.566;2024-02-14T03:51:51;7.20;;;4.20;;
22144;SDS011;11238;48.730;11.566;2024-02-14T03:54:20;6.60;;;4.50;;
22144;SDS011;11238;48.730;11.566;2024-02-14T03:56:46;8.05;;;4.47;;
22144;SDS011;11238;48.730;11.566;2024-02-14T03:59:11;6.63;;;4.20;;
22144;SDS011;11238;48.730;11.566;2024-02-14T04:01:37;7.50;;;4.80;;
22144;SDS011;11238;48.730;11.566;2024-02-14T04:04:04;7.03;;;4.53;;
22144;SDS011;11238;48.730;11.566;2024-02-14T04:06:29;8.38;;;4.20;;
22144;SDS011;11238;48.730;11.566;2024-02-14T04:08:57;6.32;;;4.43;;
22144;SDS011;11238;48.730;11.566;2024-02-14T04:11:24;11.98;;;4.57;;
22144;SDS011;11238;48.730;11.566;2024-02-14T04:13:50;7.32;;;4.45;;
22144;SDS011;11238;48.730;11.566;2024-02-14T04:16:18;10.23;;;4.45;;
22144;SDS011;11238;48.730;11.566;2024-02-14T04:18:45;7.00;;;4.72;;
22144;SDS011;11238;48.730;11.566;2024-02-14T04:21:11;8.13;;;4.95;;
22144;SDS011;11238;48.730;11.566;2024-02-14T04:23:37;8.75;;;4.70;;
22144;SDS011;11238;48.730;11.566;2024-02-14T04:26:03;6.63;;;4.30;;
22144;SDS011;11238;48.730;11.566;2024-02-14T04:28:29;8.23;;;4.18;;
22144;SDS011;11238;48.730;11.566;2024-02-14T04:30:55;8.60;;;4.93;;
22144;SDS011;11238;48.730;11.566;2024-02-14T04:33:22;8.20;;;5.05;;
22144;SDS011;11238;48.730;11.566;2024-02-14T04:35:48;7.55;;;4.80;;
22144;SDS011;11238;48.730;11.566;2024-02-14T04:38:14;6.60;;;4.95;;
22144;SDS011;11238;48.730;11.566;2024-02-14T04:40:40;7.72;;;4.93;;
22144;SDS011;11238;48.730;11.566;2024-02-14T04:43:06;8.73;;;5.30;;
22144;SDS011;11238;48.730;11.566;2024-02-14T04:45:31;7.40;;;5.03;;
22144;SDS011;11238;48.730;11.566;2024-02-14T04:47:57;12.95;;;5.53;;
22144;SDS011;11238;48.730;11.566;2024-02-14T04:50:23;7.75;;;5.28;;
22144;SDS011;11238;48.730;11.566;2024-02-14T04:52:49;8.07;;;5.00;;
22144;SDS011;11238;48.730;11.566;2024-02-14T04:55:15;8.35;;;4.78;;
22144;SDS011;11238;48.730;11.566;2024-02-14T04:57:41;7.50;;;5.00;;
22144;SDS011;11238;48.730;11.566;2024-02-14T05:00:06;8.65;;;5.30;;
22144;SDS011;11238;48.730;11.566;2024-02-14T05:02:34;7.75;;;4.90;;
22144;SDS011;11238;48.730;11.566;2024-02-14T05:05:01;9.57;;;4.97;;
22144;SDS011;11238;48.730;11.566;2024-02-14T05:07:28;8.38;;;5.32;;
22144;SDS011;11238;48.730;11.566;2024-02-14T05:09:53;8.43;;;5.00;;
22144;SDS011;11238;48.730;11.566;2024-02-14T05:12:21;14.07;;;5.63;;
22144;SDS011;11238;48.730;11.566;2024-02-14T05:14:48;10.27;;;5.10;;
22144;SDS011;11238;48.730;11.566;2024-02-14T05:17:14;8.23;;;5.22;;
22144;SDS011;11238;48.730;11.566;2024-02-14T05:19:43;8.65;;;6.00;;
22144;SDS011;11238;48.730;11.566;2024-02-14T05:22:09;9.55;;;6.10;;
22144;SDS011;11238;48.730;11.566;2024-02-14T05:24:35;8.02;;;5.68;;
22144;SDS011;11238;48.730;11.566;2024-02-14T05:27:03;13.02;;;6.00;;
22144;SDS011;11238;48.730;11.566;2024-02-14T05:29:29;10.30;;;6.05;;
22144;SDS011;11238;48.730;11.566;2024-02-14T05:31:55;10.60;;;6.28;;
22144;SDS011;11238;48.730;11.566;2024-02-14T05:34:21;11.38;;;6.03;;
22144;SDS011;11238;48.730;11.566;2024-02-14T05:36:47;8.18;;;5.53;;
22144;SDS011;11238;48.730;11.566;2024-02-14T05:39:13;9.45;;;6.28;;
22144;SDS011;11238;48.730;11.566;2024-02-14T05:41:40;8.45;;;6.15;;
22144;SDS011;11238;48.730;11.566;2024-02-14T05:44:06;9.63;;;6.05;;
22144;SDS011;11238;48.730;11.566;2024-02-14T05:46:32;10.55;;;6.93;;
22144;SDS011;11238;48.730;11.566;2024-02-14T05:48:58;10.98;;;7.00;;
22144;SDS011;11238;48.730;11.566;2024-02-14T05:51:24;12.77;;;7.10;;
22144;SDS011;11238;48.730;11.566;2024-02-14T05:53:50;14.82;;;7.22;;
22144;SDS011;11238;48.730;11.566;2024-02-14T05:56:16;9.43;;;5.32;;
22144;SDS011;11238;48.730;11.566;2024-02-14T05:58:42;8.73;;;5.25;;
22144;SDS011;11238;48.730;11.566;2024-02-14T06:01:07;11.88;;;5.38;;
22144;SDS011;11238;48.730;11.566;2024-02-14T06:03:34;7.10;;;5.43;;
22144;SDS011;11238;48.730;11.566;2024-02-14T06:06:00;9.10;;;5.00;;
22144;SDS011;11238;48.730;11.566;2024-02-14T06:08:26;11.27;;;5.07;;
22144;SDS011;11238;48.730;11.566;2024-02-14T06:10:52;7.85;;;5.15;;
22144;SDS011;11238;48.730;11.566;2024-02-14T06:13:18;9.52;;;4.97;;
22144;SDS011;11238;48.730;11.566;2024-02-14T06:15:44;11.20;;;5.80;;
22144;SDS011;11238;48.730;11.566;2024-02-14T06:18:10;20.33;;;6.40;;
22144;SDS011;11238;48.730;11.566;2024-02-14T06:20:36;13.18;;;6.70;;
22144;SDS011;11238;48.730;11.566;2024-02-14T06:23:04;12.02;;;7.03;;
22144;SDS011;11238;48.730;11.566;2024-02-14T06:25:31;15.55;;;7.43;;
22144;SDS011;11238;48.730;11.566;2024-02-14T06:27:56;20.08;;;8.75;;
22144;SDS011;11238;48.730;11.566;2024-02-14T06:30:22;15.25;;;8.20;;
22144;SDS011;11238;48.730;11.566;2024-02-14T06:32:48;14.70;;;8.18;;
22144;SDS011;11238;48.730;11.566;2024-02-14T06:35:13;14.25;;;7.22;;
22144;SDS011;11238;48.730;11.566;2024-02-14T06:37:41;12.02;;;6.50;;
22144;SDS011;11238;48.730;11.566;2024-02-14T06:40:06;11.45;;;6.85;;
22144;SDS011;11238;48.730;11.566;2024-02-14T06:42:34;15.07;;;6.57;;
22144;SDS011;11238;48.730;11.566;2024-02-14T06:44:59;12.95;;;6.30;;
22144;SDS011;11238;48.730;11.566;2024-02-14T06:47:25;12.73;;;6.35;;
22144;SDS011;11238;48.730;11.566;2024-02-14T06:49:55;11.07;;;6.70;;
22144;SDS011;11238;48.730;11.566;2024-02-14T06:52:21;12.00;;;7.00;;
22144;SDS011;11238;48.730;11.566;2024-02-14T06:54:47;10.90;;;6.75;;
22144;SDS011;11238;48.730;11.566;2024-02-14T06:57:13;18.27;;;9.57;;
22144;SDS011;11238;48.730;11.566;2024-02-14T06:59:39;20.08;;;10.25;;
22144;SDS011;11238;48.730;11.566;2024-02-14T07:02:05;19.20;;;8.18;;
22144;SDS011;11238;48.730;11.566;2024-02-14T07:04:31;15.77;;;8.15;;
22144;SDS011;11238;48.730;11.566;2024-02-14T07:06:58;15.57;;;8.00;;
22144;SDS011;11238;48.730;11.566;2024-02-14T07:09:23;14.30;;;9.25;;
22144;SDS011;11238;48.730;11.566;2024-02-14T07:11:50;21.15;;;11.18;;
22144;SDS011;11238;48.730;11.566;2024-02-14T07:14:19;21.85;;;11.02;;
22144;SDS011;11238;48.730;11.566;2024-02-14T07:16:44;16.80;;;10.13;;
22144;SDS011;11238;48.730;11.566;2024-02-14T07:19:10;27.05;;;13.02;;
22144;SDS011;11238;48.730;11.566;2024-02-14T07:21:36;33.38;;;14.52;;
22144;SDS011;11238;48.730;11.566;2024-02-14T07:24:03;41.90;;;15.98;;
22144;SDS011;11238;48.730;11.566;2024-02-14T07:26:30;39.75;;;16.50;;
22144;SDS011;11238;48.730;11.566;2024-02-14T07:28:56;35.78;;;15.55;;
22144;SDS011;11238;48.730;11.566;2024-02-14T07:31:23;28.42;;;12.93;;
22144;SDS011;11238;48.730;11.566;2024-02-14T07:33:49;27.25;;;11.45;;
22144;SDS011;11238;48.730;11.566;2024-02-14T07:36:18;22.52;;;11.63;;
22144;SDS011;11238;48.730;11.566;2024-02-14T07:38:44;21.70;;;12.90;;
22144;SDS011;11238;48.730;11.566;2024-02-14T07:41:10;25.08;;;12.85;;
22144;SDS011;11238;48.730;11.566;2024-02-14T07:43:36;20.25;;;11.18;;
22144;SDS011;11238;48.730;11.566;2024-02-14T07:46:01;19.95;;;10.63;;
22144;SDS011;11238;48.730;11.566;2024-02-14T07:48:27;14.90;;;9.10;;
22144;SDS011;11238;48.730;11.566;2024-02-14T07:50:53;17.80;;;9.57;;
22144;SDS011;11238;48.730;11.566;2024-02-14T07:53:21;15.77;;;9.10;;
22144;SDS011;11238;48.730;11.566;2024-02-14T07:55:47;15.25;;;9.95;;
22144;SDS011;11238;48.730;11.566;2024-02-14T07:58:13;24.55;;;11.10;;
22144;SDS011;11238;48.730;11.566;2024-02-14T08:00:39;19.33;;;11.05;;
22144;SDS011;11238;48.730;11.566;2024-02-14T08:03:05;27.92;;;12.68;;
22144;SDS011;11238;48.730;11.566;2024-02-14T08:05:31;33.15;;;16.63;;
22144;SDS011;11238;48.730;11.566;2024-02-14T08:07:56;34.63;;;15.98;;
22144;SDS011;11238;48.730;11.566;2024-02-14T08:10:24;28.52;;;14.80;;
22144;SDS011;11238;48.730;11.566;2024-02-14T08:12:50;18.05;;;9.75;;
22144;SDS011;11238;48.730;11.566;2024-02-14T08:15:16;15.27;;;8.60;;
22144;SDS011;11238;48.730;11.566;2024-02-14T08:17:41;17.17;;;8.68;;
22144;SDS011;11238;48.730;11.566;2024-02-14T08:20:07;17.88;;;8.88;;
22144;SDS011;11238;48.730;11.566;2024-02-14T08:22:33;17.88;;;8.48;;
22144;SDS011;11238;48.730;11.566;2024-02-14T08:24:59;14.52;;;7.32;;
22144;SDS011;11238;48.730;11.566;2024-02-14T08:27:25;12.13;;;6.30;;
22144;SDS011;11238;48.730;11.566;2024-02-14T08:29:52;9.82;;;5.85;;
22144;SDS011;11238;48.730;11.566;2024-02-14T08:32:18;8.05;;;5.25;;
22144;SDS011;11238;48.730;11.566;2024-02-14T08:34:44;9.55;;;4.93;;
22144;SDS011;11238;48.730;11.566;2024-02-14T08:37:10;7.43;;;5.18;;
22144;SDS011;11238;48.730;11.566;2024-02-14T08:39:36;9.50;;;5.35;;
22144;SDS011;11238;48.730;11.566;2024-02-14T08:42:02;8.07;;;4.57;;
22144;SDS011;11238;48.730;11.566;2024-02-14T08:44:32;8.63;;;5.10;;
22144;SDS011;11238;48.730;11.566;2024-02-14T08:46:59;8.23;;;4.80;;
22144;SDS011;11238;48.730;11.566;2024-02-14T08:49:25;8.43;;;5.28;;
22144;SDS011;11238;48.730;11.566;2024-02-14T08:51:51;10.00;;;5.65;;
22144;SDS011;11238;48.730;11.566;2024-02-14T08:54:17;8.10;;;5.00;;
22144;SDS011;11238;48.730;11.566;2024-02-14T08:56:43;9.35;;;5.47;;
22144;SDS011;11238;48.730;11.566;2024-02-14T08:59:09;11.13;;;5.95;;
22144;SDS011;11238;48.730;11.566;2024-02-14T09:01:36;9.70;;;5.85;;
22144;SDS011;11238;48.730;11.566;2024-02-14T09:04:02;10.02;;;6.38;;
22144;SDS011;11238;48.730;11.566;2024-02-14T09:06:28;13.07;;;6.18;;
22144;SDS011;11238;48.730;11.566;2024-02-14T09:08:54;11.20;;;6.40;;
22144;SDS011;11238;48.730;11.566;2024-02-14T09:11:20;10.27;;;6.43;;
22144;SDS011;11238;48.730;11.566;2024-02-14T09:13:47;12.68;;;5.88;;
22144;SDS011;11238;48.730;11.566;2024-02-14T09:16:16;9.68;;;6.32;;
22144;SDS011;11238;48.730;11.566;2024-02-14T09:18:42;11.00;;;6.20;;
22144;SDS011;11238;48.730;11.566;2024-02-14T09:21:10;10.55;;;6.30;;
22144;SDS011;11238;48.730;11.566;2024-02-14T09:23:35;11.48;;;5.85;;
22144;SDS011;11238;48.730;11.566;2024-02-14T09:26:05;13.75;;;5.68;;
22144;SDS011;11238;48.730;11.566;2024-02-14T09:28:32;7.88;;;4.90;;
22144;SDS011;11238;48.730;11.566;2024-02-14T09:31:00;7.05;;;4.68;;
22144;SDS011;11238;48.730;11.566;2024-02-14T09:33:29;8.60;;;5.18;;
22144;SDS011;11238;48.730;11.566;2024-02-14T09:35:56;12.10;;;5.88;;
22144;SDS011;11238;48.730;11.566;2024-02-14T09:38:22;9.65;;;5.60;;
22144;SDS011;11238;48.730;11.566;2024-02-14T09:40:49;9.07;;;5.90;;
22144;SDS011;11238;48.730;11.566;2024-02-14T09:46:07;10.63;;;5.72;;
22144;SDS011;11238;48.730;11.566;2024-02-14T09:48:34;7.97;;;5.82;;
22144;SDS011;11238;48.730;11.566;2024-02-14T09:51:02;8.73;;;5.35;;
22144;SDS011;11238;48.730;11.566;2024-02-14T09:53:29;8.10;;;5.30;;
22144;SDS011;11238;48.730;11.566;2024-02-14T09:55:55;11.73;;;5.25;;
22144;SDS011;11238;48.730;11.566;2024-02-14T09:58:21;10.18;;;5.30;;
22144;SDS011;11238;48.730;11.566;2024-02-14T10:00:48;7.53;;;4.72;;
22144;SDS011;11238;48.730;11.566;2024-02-14T10:03:15;7.32;;;4.80;;
22144;SDS011;11238;48.730;11.566;2024-02-14T10:05:41;6.88;;;5.13;;
22144;SDS011;11238;48.730;11.566;2024-02-14T10:08:07;10.20;;;5.43;;
22144;SDS011;11238;48.730;11.566;2024-02-14T10:10:34;10.85;;;4.95;;
22144;SDS011;11238;48.730;11.566;2024-02-14T10:13:00;6.10;;;4.13;;
22144;SDS011;11238;48.730;11.566;2024-02-14T10:15:29;7.10;;;4.82;;
22144;SDS011;11238;48.730;11.566;2024-02-14T10:17:57;5.55;;;3.70;;
22144;SDS011;11238;48.730;11.566;2024-02-14T10:20:25;7.38;;;4.03;;
22144;SDS011;11238;48.730;11.566;2024-02-14T10:22:52;4.97;;;3.67;;
22144;SDS011;11238;48.730;11.566;2024-02-14T10:25:25;10.25;;;3.40;;
22144;SDS011;11238;48.730;11.566;2024-02-14T10:27:52;5.13;;;2.95;;
22144;SDS011;11238;48.730;11.566;2024-02-14T10:30:17;5.65;;;3.42;;
22144;SDS011;11238;48.730;11.566;2024-02-14T10:32:43;6.03;;;3.08;;
22144;SDS011;11238;48.730;11.566;2024-02-14T10:35:12;4.97;;;3.03;;
22144;SDS011;11238;48.730;11.566;2024-02-14T10:37:39;3.72;;;2.70;;
22144;SDS011;11238;48.730;11.566;2024-02-14T10:40:05;7.18;;;2.75;;
22144;SDS011;11238;48.730;11.566;2024-02-14T10:42:32;5.13;;;3.75;;
22144;SDS011;11238;48.730;11.566;2024-02-14T10:44:59;5.03;;;2.80;;
22144;SDS011;11238;48.730;11.566;2024-02-14T10:47:29;3.85;;;2.92;;
22144;SDS011;11238;48.730;11.566;2024-02-14T10:49:57;3.92;;;2.65;;
22144;SDS011;11238;48.730;11.566;2024-02-14T10:52:36;3.53;;;2.70;;
22144;SDS011;11238;48.730;11.566;2024-02-14T10:55:05;3.95;;;2.70;;
22144;SDS011;11238;48.730;11.566;2024-02-14T10:57:32;5.22;;;3.40;;
22144;SDS011;11238;48.730;11.566;2024-02-14T11:00:00;6.10;;;2.70;;
22144;SDS011;11238;48.730;11.566;2024-02-14T11:02:30;8.98;;;3.50;;
22144;SDS011;11238;48.730;11.566;2024-02-14T11:04:58;5.20;;;3.05;;
22144;SDS011;11238;48.730;11.566;2024-02-14T11:07:29;6.13;;;3.33;;
22144;SDS011;11238;48.730;11.566;2024-02-14T11:10:08;4.60;;;2.88;;
22144;SDS011;11238;48.730;11.566;2024-02-14T11:12:34;4.32;;;3.30;;
22144;SDS011;11238;48.730;11.566;2024-02-14T11:15:11;3.53;;;2.63;;
22144;SDS011;11238;48.730;11.566;2024-02-14T11:17:41;4.07;;;3.10;;
22144;SDS011;11238;48.730;11.566;2024-02-14T11:20:15;5.53;;;3.28;;
22144;SDS011;11238;48.730;11.566;2024-02-14T11:22:54;10.93;;;3.05;;
22144;SDS011;11238;48.730;11.566;2024-02-14T11:25:22;4.72;;;2.67;;
22144;SDS011;11238;48.730;11.566;2024-02-14T11:27:53;5.38;;;3.00;;
22144;SDS011;11238;48.730;11.566;2024-02-14T11:30:31;6.70;;;3.05;;
22144;SDS011;11238;48.730;11.566;2024-02-14T11:33:12;4.65;;;2.28;;
22144;SDS011;11238;48.730;11.566;2024-02-14T11:35:40;3.78;;;2.40;;
22144;SDS011;11238;48.730;11.566;2024-02-14T11:38:07;2.72;;;2.22;;
22144;SDS011;11238;48.730;11.566;2024-02-14T11:40:34;2.95;;;2.33;;
22144;SDS011;11238;48.730;11.566;2024-02-14T11:43:13;2.92;;;1.90;;
22144;SDS011;11238;48.730;11.566;2024-02-14T11:45:43;4.97;;;2.03;;
22144;SDS011;11238;48.730;11.566;2024-02-14T11:48:11;3.25;;;2.30;;
22144;SDS011;11238;48.730;11.566;2024-02-14T11:50:38;5.25;;;2.50;;
22144;SDS011;11238;48.730;11.566;2024-02-14T11:53:05;5.55;;;2.33;;
22144;SDS011;11238;48.730;11.566;2024-02-14T11:55:35;3.35;;;1.80;;
22144;SDS011;11238;48.730;11.566;2024-02-14T12:00:39;3.88;;;2.13;;
22144;SDS011;11238;48.730;11.566;2024-02-14T12:03:06;4.00;;;2.40;;
22144;SDS011;11238;48.730;11.566;2024-02-14T12:05:34;7.53;;;2.67;;
22144;SDS011;11238;48.730;11.566;2024-02-14T12:08:01;4.90;;;2.65;;
22144;SDS011;11238;48.730;11.566;2024-02-14T12:10:28;5.00;;;2.33;;
22144;SDS011;11238;48.730;11.566;2024-02-14T12:12:58;3.67;;;2.30;;
22144;SDS011;11238;48.730;11.566;2024-02-14T12:15:36;3.03;;;2.38;;
22144;SDS011;11238;48.730;11.566;2024-02-14T12:18:05;3.97;;;2.50;;
22144;SDS011;11238;48.730;11.566;2024-02-14T12:20:32;3.83;;;2.33;;
22144;SDS011;11238;48.730;11.566;2024-02-14T12:22:58;4.93;;;2.50;;
22144;SDS011;11238;48.730;11.566;2024-02-14T12:25:25;2.78;;;2.10;;
22144;SDS011;11238;48.730;11.566;2024-02-14T12:27:52;4.95;;;2.33;;
22144;SDS011;11238;48.730;11.566;2024-02-14T12:30:18;3.47;;;2.13;;
22144;SDS011;11238;48.730;11.566;2024-02-14T12:32:57;3.78;;;2.20;;
22144;SDS011;11238;48.730;11.566;2024-02-14T12:35:24;4.57;;;2.40;;
22144;SDS011;11238;48.730;11.566;2024-02-14T12:37:51;2.97;;;2.17;;
22144;SDS011;11238;48.730;11.566;2024-02-14T12:40:18;6.00;;;2.50;;
22144;SDS011;11238;48.730;11.566;2024-02-14T12:42:45;3.70;;;2.10;;
22144;SDS011;11238;48.730;11.566;2024-02-14T12:45:11;5.80;;;2.40;;
22144;SDS011;11238;48.730;11.566;2024-02-14T12:47:37;3.75;;;2.17;;
22144;SDS011;11238;48.730;11.566;2024-02-14T12:50:03;5.03;;;2.20;;
22144;SDS011;11238;48.730;11.566;2024-02-14T12:52:34;5.97;;;2.08;;
22144;SDS011;11238;48.730;11.566;2024-02-14T12:55:00;4.43;;;2.25;;
22144;SDS011;11238;48.730;11.566;2024-02-14T12:57:25;4.35;;;2.15;;
22144;SDS011;11238;48.730;11.566;2024-02-14T12:59:51;2.97;;;2.20;;
22144;SDS011;11238;48.730;11.566;2024-02-14T13:02:17;5.18;;;2.38;;
22144;SDS011;11238;48.730;11.566;2024-02-14T13:04:43;3.72;;;1.80;;
22144;SDS011;11238;48.730;11.566;2024-02-14T13:07:09;3.85;;;2.00;;
22144;SDS011;11238;48.730;11.566;2024-02-14T13:09:35;3.40;;;1.80;;
22144;SDS011;11238;48.730;11.566;2024-02-14T13:12:02;3.70;;;1.98;;
22144;SDS011;11238;48.730;11.566;2024-02-14T13:14:28;2.58;;;1.88;;
22144;SDS011;11238;48.730;11.566;2024-02-14T13:16:57;2.35;;;2.15;;
22144;SDS011;11238;48.730;11.566;2024-02-14T13:19:23;4.85;;;2.10;;
22144;SDS011;11238;48.730;11.566;2024-02-14T13:21:49;4.45;;;2.08;;
22144;SDS011;11238;48.730;11.566;2024-02-14T13:24:15;2.83;;;2.10;;
22144;SDS011;11238;48.730;11.566;2024-02-14T13:26:42;2.63;;;1.98;;
22144;SDS011;11238;48.730;11.566;2024-02-14T13:29:07;2.55;;;1.83;;
22144;SDS011;11238;48.730;11.566;2024-02-14T13:31:33;4.85;;;1.98;;
22144;SDS011;11238;48.730;11.566;2024-02-14T13:33:59;7.20;;;1.85;;
22144;SDS011;11238;48.730;11.566;2024-02-14T13:36:24;2.88;;;1.88;;
22144;SDS011;11238;48.730;11.566;2024-02-14T13:38:50;3.58;;;2.03;;
22144;SDS011;11238;48.730;11.566;2024-02-14T13:41:16;3.58;;;2.20;;
22144;SDS011;11238;48.730;11.566;2024-02-14T13:43:42;3.42;;;1.92;;
22144;SDS011;11238;48.730;11.566;2024-02-14T13:46:09;1.90;;;1.60;;
22144;SDS011;11238;48.730;11.566;2024-02-14T13:48:35;4.05;;;2.05;;
22144;SDS011;11238;48.730;11.566;2024-02-14T13:51:01;2.85;;;2.15;;
22144;SDS011;11238;48.730;11.566;2024-02-14T13:53:28;3.70;;;2.10;;
22144;SDS011;11238;48.730;11.566;2024-02-14T13:55:54;3.28;;;1.98;;
22144;SDS011;11238;48.730;11.566;2024-02-14T13:58:21;4.03;;;1.98;;
22144;SDS011;11238;48.730;11.566;2024-02-14T14:00:47;3.17;;;1.95;;
22144;SDS011;11238;48.730;11.566;2024-02-14T14:03:13;3.63;;;2.03;;
22144;SDS011;11238;48.730;11.566;2024-02-14T14:05:39;3.38;;;2.38;;
22144;SDS011;11238;48.730;11.566;2024-02-14T14:08:05;4.22;;;1.90;;
22144;SDS011;11238;48.730;11.566;2024-02-14T14:10:31;2.75;;;1.85;;
22144;SDS011;11238;48.730;11.566;2024-02-14T14:12:57;4.35;;;1.95;;
22144;SDS011;11238;48.730;11.566;2024-02-14T14:15:22;2.75;;;1.77;;
22144;SDS011;11238;48.730;11.566;2024-02-14T14:17:48;3.63;;;1.98;;
22144;SDS011;11238;48.730;11.566;2024-02-14T14:20:14;4.13;;;2.17;;
22144;SDS011;11238;48.730;11.566;2024-02-14T14:22:40;2.85;;;2.13;;
22144;SDS011;11238;48.730;11.566;2024-02-14T14:25:06;5.95;;;2.20;;
22144;SDS011;11238;48.730;11.566;2024-02-14T14:27:33;2.70;;;1.73;;
22144;SDS011;11238;48.730;11.566;2024-02-14T14:30:00;3.97;;;1.83;;
22144;SDS011;11238;48.730;11.566;2024-02-14T14:32:25;6.63;;;2.00;;
22144;SDS011;11238;48.730;11.566;2024-02-14T14:34:51;4.18;;;1.90;;